Hlavní strana
METAR-TAF:

METAR-TAF

Letiště :

Orange, Francie

zeměpisná šířka: 44-08N, zeměpisná délka: 004-50E, výška: 60 m

Aktuální stav počasí

Zpráva byla vytvořena před 13 minutami, v 21:00 UTC
Bezvětří
Teplota 10°C
Vlhkost vzduchu 53%
Tlak 1022 hPa
Viditelnost 10 km a více
Žádná oblačnost pod 1500 m, nevyskytují se cumulonimby.

METAR: LFMO 042100Z AUTO 00000KT CAVOK 10/01 Q1022 NOSIG

Čas: 23:13 (21:13 UTC)

Předpověď počasí

Zpráva byla vytvořena před 1 hodinou a 13 minutami, v 20:00 UTC
Předpověď platná od 04 v 21 UTC do 05 v 21 UTC
vítr z různých směrů 2 kt
Viditelnost 10 km a více
Žádná oblačnost pod 1500 m, nevyskytují se cumulonimby.

TAF: LFMO 042000Z 0421/0521 VRB02KT CAVOK

Stav a předpovědi počasí z více než 4 000 letišť (zprávy METAR a TAF).

Červené a žluté tečky na mapě představují dostupné meteorologické stanice.

Když kurzor umístíte na tečku, zobrazí se název stanice.

Pak kliknutím zobrazíte stav a předpověď počasí.

Chcete-li změnit mapu, kliknutím na zelené tlačítko se znaménkem +mapu přiblížíte, kliknutím na zelené tlačítko se znaménkem – mapu oddálíte a kliknutím na zelené šipky přejdete na sousední mapy.


METAR-TAF: